KCHO/CHO METAR and TAF weather

Enter ICAO airport designator
Station Type Date Time Source
KCHO METAR 2019/10/16 18:53 UTC NOAA

KCHO 161853Z VRB04KT 10SM SCT004 SCT031 BKN080 16/13 A2959 RMK AO2 SLP016 T01610128


Station Type Date Time Source
KCHO Decoded METAR 2019/10/16 18:53 UTC NOAA

CHARLOTTESVILLE-ALBEMARLE, VA, United States (KCHO) 38-08N 078-27W 192M
Oct 16, 2019 - 02:53 PM EDT / 2019.10.16 1853 UTC
Wind: Variable at 5 MPH (4 KT):0
Visibility: 10 mile(s):0
Sky conditions: mostly cloudy
Temperature: 61.0 F (16.1 C)
Dew Point: 55.0 F (12.8 C)
Relative Humidity: 80%
Pressure (altimeter): 29.59 in. Hg (1002 hPa)
ob: KCHO 161853Z VRB04KT 10SM SCT004 SCT031 BKN080 16/13 A2959 RMK AO2 SLP016 T01610128
cycle: 19

Station Type Date Time Source
KCHO TAF 2019/10/16 20:33 UTC NOAA

TAF
AMD KCHO 161930Z 1620/1718 26004KT P6SM OVC050
FM162200 30008KT P6SM SCT250
FM170000 29010G24KT P6SM FEW250

Example: see airport list